createdAt,value
2023-01-13T13:11:57.893Z,10.42
2023-01-13T13:14:43.734Z,10.51
2023-01-13T13:17:29.267Z,10.54
2023-01-13T13:20:53.889Z,10.66
2023-01-13T13:24:10.275Z,10.68
2023-01-13T13:26:56.103Z,10.70
2023-01-13T13:29:58.355Z,10.71
2023-01-13T13:33:10.761Z,10.81
2023-01-13T13:36:07.216Z,10.79
2023-01-13T13:39:34.224Z,10.61
2023-01-13T13:42:55.407Z,10.51
2023-01-13T13:46:09.733Z,10.55
2023-01-13T13:48:55.275Z,10.50
2023-01-13T13:51:52.514Z,10.42
2023-01-13T13:54:40.993Z,10.29
2023-01-13T13:57:39.820Z,10.32
2023-01-13T14:00:35.714Z,10.36
2023-01-13T14:03:32.534Z,10.21
2023-01-13T14:06:24.292Z,10.14
2023-01-13T14:09:17.161Z,10.13
2023-01-13T14:12:06.719Z,10.14
2023-01-13T14:14:54.178Z,10.16
2023-01-13T14:17:39.621Z,10.18
2023-01-13T14:20:24.950Z,10.16
2023-01-13T14:23:18.199Z,10.17
2023-01-13T14:26:12.816Z,10.16
2023-01-13T14:29:00.922Z,10.18
2023-01-13T14:31:47.219Z,10.20
2023-01-13T14:34:34.311Z,10.28
2023-01-13T14:37:25.078Z,10.34
2023-01-13T14:40:36.198Z,10.35
2023-01-13T14:43:24.751Z,10.32
2023-01-13T14:46:11.872Z,10.23
2023-01-13T14:49:01.284Z,10.22
2023-01-13T14:51:46.590Z,10.21
2023-01-13T14:54:41.215Z,10.18
2023-01-13T14:57:34.844Z,10.13
2023-01-13T15:00:25.534Z,10.11
2023-01-13T15:03:15.418Z,10.06
2023-01-13T15:06:01.452Z,10.03
2023-01-13T15:08:46.934Z,9.99
2023-01-13T15:11:32.190Z,9.96
2023-01-13T15:14:24.238Z,9.95
2023-01-13T15:17:16.706Z,9.93
2023-01-13T15:20:03.121Z,9.90
2023-01-13T15:22:49.449Z,9.83
2023-01-13T15:25:37.779Z,9.78
2023-01-13T15:28:27.022Z,9.73
2023-01-13T15:31:12.552Z,9.68
2023-01-13T15:33:58.819Z,9.64
2023-01-13T15:36:44.549Z,9.61
2023-01-13T15:39:29.873Z,9.58
2023-01-13T15:42:33.675Z,9.61
2023-01-13T15:45:37.462Z,9.57
2023-01-13T15:48:24.669Z,9.56
2023-01-13T15:51:13.192Z,9.53
2023-01-13T15:54:02.405Z,9.53
2023-01-13T15:56:47.560Z,9.53
2023-01-13T15:59:33.786Z,9.51
2023-01-13T16:02:19.213Z,9.52
2023-01-13T16:05:05.930Z,9.51
2023-01-13T16:07:51.241Z,9.53
2023-01-13T16:10:36.368Z,9.56
2023-01-13T16:13:21.982Z,9.53
2023-01-13T16:16:26.789Z,9.52
2023-01-13T16:19:12.702Z,9.50
2023-01-13T16:21:59.756Z,9.51
2023-01-13T16:24:44.873Z,9.50
2023-01-13T16:27:30.133Z,9.51
2023-01-13T16:30:24.528Z,9.51
2023-01-13T16:33:09.970Z,9.53
2023-01-13T16:36:11.750Z,9.54
2023-01-13T16:38:58.255Z,9.52
2023-01-13T16:41:43.675Z,9.57
2023-01-13T16:44:29.157Z,9.53
2023-01-13T16:47:16.753Z,9.52
2023-01-13T16:50:02.931Z,9.48
2023-01-13T16:52:48.321Z,9.46
2023-01-13T16:55:33.782Z,9.43
2023-01-13T16:58:20.637Z,9.40
2023-01-13T17:01:06.190Z,9.37
2023-01-13T17:03:51.943Z,9.37
2023-01-13T17:06:52.328Z,9.38
2023-01-13T17:09:37.804Z,9.34
2023-01-13T17:12:23.237Z,9.33
2023-01-13T17:15:12.355Z,9.34
2023-01-13T17:17:57.627Z,9.32
2023-01-13T17:20:42.881Z,9.27
2023-01-13T17:23:29.735Z,9.20
2023-01-13T17:26:43.892Z,9.17
2023-01-13T17:29:29.443Z,9.17
2023-01-13T17:32:18.511Z,9.15
2023-01-13T17:35:04.060Z,9.14
2023-01-13T17:37:49.355Z,9.11
2023-01-13T17:40:36.638Z,9.09
2023-01-13T17:43:21.688Z,9.06
2023-01-13T17:46:12.471Z,9.07
2023-01-13T17:48:57.812Z,9.06
2023-01-13T17:51:50.996Z,9.07
2023-01-13T17:54:36.634Z,9.07
2023-01-13T17:57:21.932Z,9.05
2023-01-13T18:00:07.986Z,9.07
2023-01-13T18:02:57.768Z,9.07
2023-01-13T18:05:44.172Z,9.05
2023-01-13T18:08:29.606Z,9.05
2023-01-13T18:11:18.868Z,9.05
2023-01-13T18:14:06.436Z,9.06
2023-01-13T18:16:52.512Z,9.05
2023-01-13T18:19:56.361Z,9.05
2023-01-13T18:23:00.088Z,9.07
2023-01-13T18:26:04.966Z,9.11
2023-01-13T18:28:53.081Z,9.08
2023-01-13T18:31:38.602Z,9.03
2023-01-13T18:34:23.720Z,9.03
2023-01-13T18:37:10.738Z,9.06
2023-01-13T18:39:56.154Z,9.07
2023-01-13T18:42:51.363Z,9.11
2023-01-13T18:45:37.221Z,9.13
2023-01-13T18:48:22.459Z,9.14
2023-01-13T18:51:07.843Z,9.16
2023-01-13T18:53:53.892Z,9.17
2023-01-13T18:56:39.185Z,9.16
2023-01-13T18:59:25.046Z,9.17
2023-01-13T19:02:15.903Z,9.18
2023-01-13T19:05:01.262Z,9.19
2023-01-13T19:07:50.822Z,9.17
2023-01-13T19:10:37.421Z,9.13
2023-01-13T19:13:22.807Z,9.13
2023-01-13T19:16:09.017Z,9.15
2023-01-13T19:18:54.693Z,9.15
2023-01-13T19:21:40.526Z,9.14
2023-01-13T19:24:26.063Z,9.10
2023-01-13T19:27:14.419Z,9.15
2023-01-13T19:30:10.796Z,9.13
2023-01-13T19:32:56.193Z,9.12
2023-01-13T19:35:44.604Z,9.12
2023-01-13T19:38:31.548Z,9.14
2023-01-13T19:41:38.068Z,9.14
2023-01-13T19:44:43.466Z,9.15
2023-01-13T19:47:29.102Z,9.08
2023-01-13T19:50:14.793Z,8.99
2023-01-13T19:53:00.046Z,8.94
2023-01-13T19:55:48.364Z,8.90
2023-01-13T19:58:33.892Z,8.88
2023-01-13T20:01:19.321Z,8.88
